Time;durP1;ratioP1;P1;durP2;ratioP2;P2;SDS_P1;SDS_P2;PMS_P1;PMS_P2;Temp;Humidity;BMP_temperature;BMP_pressure;BME280_temperature;BME280_humidity;BME280_pressure;Samples;Min_cycle;Max_cycle;Signal;HPM_P1;HPM_P2
2022/06/19 00:00:44;;;;;;;10.52;6.80;;;27.40;48.90;;;;;;5078167;28;20180;-84
2022/06/19 00:03:18;;;;;;;8.90;6.75;;;27.50;48.00;;;;;;5077340;28;20267;-84
2022/06/19 00:05:44;;;;;;;11.55;6.97;;;27.50;47.60;;;;;;5073554;28;20195;-84
2022/06/19 00:08:09;;;;;;;10.05;7.00;;;27.50;48.10;;;;;;5052343;28;20191;-83
2022/06/19 00:10:35;;;;;;;11.25;8.77;;;27.40;48.20;;;;;;5079444;28;20194;-84
2022/06/19 00:13:01;;;;;;;11.40;7.22;;;27.40;48.70;;;;;;5081522;28;20203;-82
2022/06/19 00:15:27;;;;;;;13.77;7.32;;;27.50;48.80;;;;;;5082523;28;20314;-83
2022/06/19 00:17:53;;;;;;;9.88;6.88;;;27.20;49.70;;;;;;5077252;28;20183;-83
2022/06/19 00:20:18;;;;;;;11.82;7.57;;;27.00;50.10;;;;;;5059529;28;20188;-82
2022/06/19 00:22:44;;;;;;;11.45;6.28;;;27.10;50.20;;;;;;5080323;28;20187;-83
2022/06/19 00:25:10;;;;;;;11.48;7.50;;;27.10;49.80;;;;;;5079115;28;20554;-81
2022/06/19 00:27:37;;;;;;;13.43;6.93;;;27.10;49.80;;;;;;5078824;28;20200;-84
2022/06/19 00:30:08;;;;;;;11.90;7.13;;;26.90;49.80;;;;;;5078411;28;20194;-82
2022/06/19 00:32:34;;;;;;;13.90;7.00;;;26.80;50.20;;;;;;5073125;28;20274;-82
2022/06/19 00:35:00;;;;;;;12.90;7.03;;;26.70;50.60;;;;;;5075981;28;20215;-85
2022/06/19 00:37:25;;;;;;;9.70;6.35;;;26.60;49.80;;;;;;5079386;28;20258;-82
2022/06/19 00:39:51;;;;;;;14.60;7.05;;;26.70;50.00;;;;;;5078932;28;20483;-83
2022/06/19 00:42:17;;;;;;;9.05;5.90;;;26.60;49.00;;;;;;5078034;28;20267;-83
2022/06/19 00:44:43;;;;;;;13.80;6.93;;;26.70;49.70;;;;;;5076752;28;20223;-83
2022/06/19 00:47:18;;;;;;;10.60;6.60;;;26.50;50.90;;;;;;5075531;28;20233;-83
2022/06/19 00:50:25;;;;;;;12.18;7.03;;;26.60;50.60;;;;;;5072060;28;20568;-83
2022/06/19 00:52:51;;;;;;;12.90;6.88;;;26.50;50.40;;;;;;5076003;28;20270;-83
2022/06/19 00:55:30;;;;;;;12.52;8.10;;;26.40;51.10;;;;;;5079717;28;20238;-84
2022/06/19 00:58:03;;;;;;;15.45;7.65;;;26.50;50.80;;;;;;5076105;28;20183;-84
2022/06/19 01:00:31;;;;;;;11.05;6.82;;;26.40;51.40;;;;;;5078020;28;20211;-83
2022/06/19 01:03:05;;;;;;;12.35;7.20;;;26.20;51.70;;;;;;5063569;28;20231;-85
2022/06/19 01:05:32;;;;;;;13.43;7.22;;;26.20;51.40;;;;;;5080074;28;20207;-81
2022/06/19 01:08:00;;;;;;;15.38;7.25;;;26.20;52.80;;;;;;5087914;28;20188;-82
2022/06/19 01:10:26;;;;;;;9.48;6.18;;;26.00;52.60;;;;;;5088114;28;20199;-84
2022/06/19 01:12:53;;;;;;;10.75;6.70;;;26.10;52.20;;;;;;5080547;28;20189;-84
2022/06/19 01:15:22;;;;;;;9.60;6.22;;;26.10;52.10;;;;;;5082646;28;20211;-84
2022/06/19 01:17:52;;;;;;;11.20;6.70;;;26.10;52.40;;;;;;5085979;28;20187;-84
2022/06/19 01:20:17;;;;;;;13.02;6.95;;;26.10;52.70;;;;;;5067401;28;20197;-82
2022/06/19 01:22:55;;;;;;;12.40;6.97;;;26.10;52.90;;;;;;5081235;28;20563;-82
2022/06/19 01:25:29;;;;;;;10.02;6.95;;;26.10;53.20;;;;;;5085248;28;20210;-83
2022/06/19 01:30:48;;;;;;;10.05;6.90;;;26.00;53.20;;;;;;5077232;28;20194;-83
2022/06/19 01:33:27;;;;;;;12.77;6.93;;;26.10;52.60;;;;;;5070638;28;20554;-83
2022/06/19 01:35:54;;;;;;;11.20;6.68;;;26.20;52.10;;;;;;5081096;28;20214;-84
2022/06/19 01:38:23;;;;;;;12.43;6.70;;;26.10;53.10;;;;;;5080885;28;20207;-82
2022/06/19 01:40:54;;;;;;;9.70;6.60;;;26.00;54.10;;;;;;5063661;28;20233;-84
2022/06/19 01:43:20;;;;;;;10.43;6.50;;;25.90;53.90;;;;;;5072773;28;20188;-84
2022/06/19 01:45:52;;;;;;;12.32;7.30;;;25.80;53.80;;;;;;5080591;28;20473;-82
2022/06/19 01:48:22;;;;;;;9.25;6.15;;;25.70;54.20;;;;;;5078095;28;20164;-84
2022/06/19 01:50:49;;;;;;;9.30;6.15;;;25.70;54.90;;;;;;5078924;28;20713;-84
2022/06/19 01:53:39;;;;;;;12.90;7.20;;;25.70;54.50;;;;;;5083144;28;20199;-84
2022/06/19 01:56:08;;;;;;;11.77;6.70;;;25.90;54.10;;;;;;5079366;28;20194;-82
2022/06/19 01:58:36;;;;;;;8.25;5.95;;;25.80;54.10;;;;;;5085303;28;20570;-83
2022/06/19 02:01:05;;;;;;;14.55;6.97;;;25.70;54.40;;;;;;5071893;28;20195;-82
2022/06/19 02:03:34;;;;;;;12.23;6.82;;;25.70;54.60;;;;;;5084238;28;20724;-84
2022/06/19 02:06:00;;;;;;;8.02;6.18;;;25.70;54.40;;;;;;5094799;28;20187;-83
2022/06/19 02:08:29;;;;;;;11.90;6.75;;;25.80;54.30;;;;;;5085948;28;20191;-83
2022/06/19 02:10:57;;;;;;;12.32;6.60;;;25.80;54.30;;;;;;5083432;28;20638;-83
2022/06/19 02:13:23;;;;;;;15.48;7.25;;;25.70;54.50;;;;;;5064679;28;20221;-84
2022/06/19 02:15:52;;;;;;;8.80;7.03;;;25.70;54.40;;;;;;5084597;28;20221;-84
2022/06/19 02:18:23;;;;;;;11.15;6.95;;;25.80;54.70;;;;;;5084883;28;20244;-82
2022/06/19 02:20:51;;;;;;;10.82;6.90;;;25.70;54.90;;;;;;5083191;28;20184;-83
2022/06/19 02:23:25;;;;;;;14.82;7.10;;;25.70;55.00;;;;;;5074609;28;20607;-84
2022/06/19 02:25:52;;;;;;;10.27;6.45;;;25.60;55.40;;;;;;5090682;28;20195;-84
2022/06/19 02:28:18;;;;;;;10.48;6.70;;;25.50;55.40;;;;;;5085884;28;20946;-83
2022/06/19 02:30:47;;;;;;;7.57;6.78;;;25.60;55.20;;;;;;5067266;28;20215;-82
2022/06/19 02:33:17;;;;;;;12.85;6.90;;;25.50;56.20;;;;;;5082478;28;20188;-83
2022/06/19 02:35:42;;;;;;;9.73;6.60;;;25.50;56.20;;;;;;5063685;28;20557;-83
2022/06/19 02:38:08;;;;;;;9.05;6.60;;;25.40;56.30;;;;;;5082584;28;20187;-83
2022/06/19 02:40:46;;;;;;;10.55;7.10;;;25.40;56.50;;;;;;5086052;28;20175;-82
2022/06/19 02:43:17;;;;;;;10.13;7.03;;;25.30;57.30;;;;;;5084783;28;20183;-83
2022/06/19 02:45:43;;;;;;;9.98;6.85;;;25.30;57.50;;;;;;5075777;28;20199;-83
2022/06/19 02:48:35;;;;;;;14.32;7.47;;;25.10;57.80;;;;;;5073714;28;20198;-83
2022/06/19 02:51:04;;;;;;;10.95;6.53;;;25.10;58.20;;;;;;5078904;28;20290;-80
2022/06/19 02:53:30;;;;;;;10.23;6.90;;;24.90;58.80;;;;;;5083640;28;20199;-84
2022/06/19 02:55:57;;;;;;;7.53;6.75;;;25.10;58.70;;;;;;5086382;28;20248;-84
2022/06/19 02:58:24;;;;;;;10.32;7.43;;;24.90;59.00;;;;;;5086069;28;20190;-82
2022/06/19 03:00:51;;;;;;;10.85;6.97;;;25.00;58.40;;;;;;5095479;28;20183;-83
2022/06/19 03:03:38;;;;;;;9.23;7.15;;;25.00;58.70;;;;;;5099347;28;20179;-82
2022/06/19 03:06:05;;;;;;;9.77;7.70;;;25.00;58.70;;;;;;5086791;28;20226;-84
2022/06/19 03:08:31;;;;;;;10.35;7.78;;;24.90;58.90;;;;;;5093593;28;20187;-81
2022/06/19 03:10:56;;;;;;;11.40;8.07;;;24.90;59.10;;;;;;5089194;28;20242;-82
2022/06/19 03:13:25;;;;;;;8.43;7.30;;;24.60;61.50;;;;;;5089432;28;20191;-82
2022/06/19 03:16:06;;;;;;;12.20;7.70;;;24.40;62.10;;;;;;5090386;28;20210;-81
2022/06/19 03:18:32;;;;;;;15.05;7.95;;;24.60;61.70;;;;;;5085746;28;20187;-82
2022/06/19 03:20:58;;;;;;;9.82;7.70;;;24.60;61.70;;;;;;5092248;28;20202;-80
2022/06/19 03:23:25;;;;;;;10.95;7.50;;;24.70;61.60;;;;;;5092965;28;20187;-83
2022/06/19 03:25:50;;;;;;;11.52;8.38;;;24.60;61.50;;;;;;5076666;28;20194;-78
2022/06/19 03:28:16;;;;;;;10.75;7.95;;;24.60;62.00;;;;;;5104519;28;20206;-80
2022/06/19 03:30:42;;;;;;;13.38;8.00;;;24.40;62.80;;;;;;5102683;28;20225;-83
2022/06/19 03:33:08;;;;;;;9.23;8.25;;;24.30;63.50;;;;;;5089385;28;20215;-83
2022/06/19 03:35:33;;;;;;;12.23;8.70;;;24.30;63.20;;;;;;5090259;28;20215;-83
2022/06/19 03:38:02;;;;;;;10.50;8.43;;;24.40;62.30;;;;;;5093647;28;20182;-83
2022/06/19 03:40:28;;;;;;;9.93;8.20;;;24.40;62.70;;;;;;5090456;28;20196;-81
2022/06/19 03:42:54;;;;;;;13.13;8.60;;;24.40;63.60;;;;;;5096189;28;20209;-82
2022/06/19 03:45:19;;;;;;;15.07;9.35;;;24.30;62.90;;;;;;5095329;28;20252;-83
2022/06/19 03:47:45;;;;;;;9.98;8.85;;;24.30;63.40;;;;;;5072187;28;20191;-83
2022/06/19 03:50:16;;;;;;;14.02;8.35;;;24.30;63.10;;;;;;5070160;28;20199;-83
2022/06/19 03:52:42;;;;;;;13.25;7.60;;;24.40;62.70;;;;;;5092717;28;20203;-84
2022/06/19 03:55:08;;;;;;;10.73;8.15;;;24.40;62.20;;;;;;5072718;28;20265;-83
2022/06/19 03:57:33;;;;;;;11.82;8.65;;;24.60;62.00;;;;;;5068018;28;20675;-83
2022/06/19 04:00:01;;;;;;;12.07;7.70;;;24.50;62.70;;;;;;5095084;28;20195;-83
2022/06/19 04:02:27;;;;;;;12.70;8.55;;;24.20;63.80;;;;;;5069494;28;20220;-83
2022/06/19 04:04:52;;;;;;;11.15;8.68;;;24.20;64.10;;;;;;5088422;28;20207;-83
2022/06/19 04:07:18;;;;;;;13.32;8.63;;;24.10;64.60;;;;;;5085307;28;20221;-84
2022/06/19 04:09:44;;;;;;;10.13;8.50;;;24.20;63.70;;;;;;5084555;28;20198;-83
2022/06/19 04:12:10;;;;;;;9.98;8.02;;;24.40;63.30;;;;;;5082649;28;20251;-82
2022/06/19 04:14:36;;;;;;;13.48;8.27;;;24.40;62.80;;;;;;5087122;28;20231;-84
2022/06/19 04:17:04;;;;;;;11.10;8.98;;;24.30;64.10;;;;;;5086468;28;20651;-84
2022/06/19 04:19:33;;;;;;;12.93;9.40;;;24.20;65.00;;;;;;5085784;28;20184;-83
2022/06/19 04:21:59;;;;;;;12.57;9.68;;;24.30;64.60;;;;;;5075299;28;20232;-84
2022/06/19 04:24:24;;;;;;;10.13;9.05;;;24.30;65.10;;;;;;5088640;28;20200;-82
2022/06/19 04:26:50;;;;;;;13.18;9.15;;;24.20;64.90;;;;;;5085479;28;20211;-83
2022/06/19 04:29:17;;;;;;;12.35;9.65;;;24.30;65.20;;;;;;5088773;28;20225;-84
2022/06/19 04:31:43;;;;;;;10.95;9.68;;;24.40;64.70;;;;;;5071402;28;20203;-84
2022/06/19 04:34:09;;;;;;;10.15;9.18;;;24.30;64.50;;;;;;5075476;28;20264;-83
2022/06/19 04:36:36;;;;;;;14.23;8.85;;;24.40;64.40;;;;;;5089106;28;20179;-83
2022/06/19 04:39:02;;;;;;;10.15;9.10;;;24.40;64.60;;;;;;5092060;28;20180;-82
2022/06/19 04:41:46;;;;;;;11.73;9.15;;;24.40;63.90;;;;;;5099358;28;20183;-82
2022/06/19 04:44:15;;;;;;;10.43;8.45;;;24.50;63.70;;;;;;5085207;28;20223;-83
2022/06/19 04:46:42;;;;;;;13.93;9.02;;;24.60;63.70;;;;;;5063069;28;20222;-83
2022/06/19 04:49:08;;;;;;;13.30;9.75;;;24.70;63.50;;;;;;5084827;28;20701;-83
2022/06/19 04:51:34;;;;;;;14.13;9.25;;;24.50;63.60;;;;;;5084451;28;20187;-83
2022/06/19 04:54:00;;;;;;;14.82;9.05;;;24.60;63.70;;;;;;5088515;28;20271;-81
2022/06/19 04:56:26;;;;;;;15.40;9.93;;;24.60;64.50;;;;;;5091029;28;20216;-83
2022/06/19 04:58:52;;;;;;;12.45;9.90;;;24.20;66.80;;;;;;5089951;28;20196;-84
2022/06/19 05:01:39;;;;;;;12.05;9.38;;;24.20;67.20;;;;;;5067115;28;20648;-84
2022/06/19 05:04:08;;;;;;;10.45;9.45;;;24.40;66.10;;;;;;5073431;28;20232;-83
2022/06/19 05:06:35;;;;;;;12.68;9.32;;;24.50;66.30;;;;;;5073713;28;20256;-84
2022/06/19 05:09:01;;;;;;;13.20;9.77;;;24.60;66.20;;;;;;5084015;28;20217;-82
2022/06/19 05:11:29;;;;;;;14.32;9.40;;;24.80;66.50;;;;;;5084753;28;20194;-81
2022/06/19 05:13:55;;;;;;;15.90;9.80;;;24.80;66.30;;;;;;5098111;28;20265;-83
2022/06/19 05:16:22;;;;;;;12.60;9.52;;;24.90;65.90;;;;;;5084702;28;20210;-82
2022/06/19 05:18:50;;;;;;;12.75;9.95;;;25.00;65.90;;;;;;5085068;28;20184;-83
2022/06/19 05:21:17;;;;;;;11.63;10.48;;;25.10;65.90;;;;;;5083890;28;20198;-85
2022/06/19 05:23:45;;;;;;;9.90;8.88;;;25.10;68.20;;;;;;5083915;28;20199;-82
2022/06/19 05:26:17;;;;;;;12.18;8.88;;;25.10;68.80;;;;;;5089618;28;20188;-81
2022/06/19 05:28:44;;;;;;;17.42;10.18;;;25.10;67.60;;;;;;5083471;28;20188;-81
2022/06/19 05:31:10;;;;;;;12.52;9.68;;;25.20;66.50;;;;;;5087329;28;20282;-83
2022/06/19 05:33:36;;;;;;;12.43;9.68;;;25.30;65.90;;;;;;5088561;28;20530;-83
2022/06/19 05:36:02;;;;;;;12.05;10.13;;;25.30;64.30;;;;;;5085030;28;20211;-84
2022/06/19 05:38:28;;;;;;;11.27;9.85;;;25.50;65.10;;;;;;5084029;28;20194;-82
2022/06/19 05:40:56;;;;;;;15.40;9.55;;;25.40;67.00;;;;;;5084398;28;20187;-85
2022/06/19 05:43:23;;;;;;;12.43;9.82;;;25.40;66.40;;;;;;5087226;28;20474;-84
2022/06/19 05:45:58;;;;;;;14.55;10.13;;;25.30;66.40;;;;;;5085647;28;20210;-84
2022/06/19 05:48:25;;;;;;;17.27;10.25;;;25.50;64.30;;;;;;5067538;28;20194;-82
2022/06/19 05:51:04;;;;;;;11.50;9.93;;;25.50;64.00;;;;;;5084009;28;20272;-82
2022/06/19 05:53:32;;;;;;;15.73;9.80;;;25.80;64.10;;;;;;5083743;28;20329;-81
2022/06/19 05:55:59;;;;;;;14.93;9.90;;;25.80;64.10;;;;;;5084831;28;20780;-82
2022/06/19 05:58:24;;;;;;;12.88;9.70;;;25.90;64.10;;;;;;5088324;28;20184;-82
2022/06/19 06:00:50;;;;;;;20.48;10.07;;;26.00;65.70;;;;;;5083089;28;20252;-82
2022/06/19 06:03:18;;;;;;;14.07;9.40;;;26.00;65.30;;;;;;5088757;28;20202;-82
2022/06/19 06:05:44;;;;;;;13.00;9.45;;;26.10;63.80;;;;;;5081324;28;20180;-82
2022/06/19 06:08:14;;;;;;;16.67;8.80;;;26.10;63.60;;;;;;5081637;28;20194;-84
2022/06/19 06:10:40;;;;;;;12.88;10.18;;;26.20;62.80;;;;;;5082713;28;20187;-84
2022/06/19 06:13:06;;;;;;;11.32;9.15;;;26.20;61.70;;;;;;5078902;28;20183;-81
2022/06/19 06:15:32;;;;;;;11.23;9.32;;;26.30;60.20;;;;;;5090133;28;20218;-81
2022/06/19 06:17:59;;;;;;;15.60;8.82;;;26.40;60.10;;;;;;5067719;28;20218;-82
2022/06/19 06:20:26;;;;;;;12.63;9.32;;;26.50;60.00;;;;;;5082421;28;20230;-82
2022/06/19 06:22:52;;;;;;;16.00;10.38;;;26.60;58.70;;;;;;5078719;28;20203;-82
2022/06/19 06:25:18;;;;;;;10.70;9.02;;;26.70;55.00;;;;;;5081341;28;20226;-83
2022/06/19 06:27:44;;;;;;;13.70;8.90;;;26.70;52.50;;;;;;5082266;28;20222;-85
2022/06/19 06:30:12;;;;;;;16.85;10.13;;;26.80;52.20;;;;;;5082582;28;20183;-85
2022/06/19 06:32:37;;;;;;;10.13;8.68;;;26.70;52.70;;;;;;5083449;28;20176;-83
2022/06/19 06:35:04;;;;;;;13.65;9.35;;;26.70;52.60;;;;;;5081274;28;20547;-84
2022/06/19 06:37:29;;;;;;;15.65;9.98;;;26.70;53.20;;;;;;5083103;28;20180;-82
2022/06/19 06:39:56;;;;;;;22.73;10.05;;;26.70;54.40;;;;;;5068213;28;20682;-84
2022/06/19 06:42:22;;;;;;;12.32;9.43;;;26.70;52.90;;;;;;5069699;28;20190;-82
2022/06/19 06:44:48;;;;;;;14.65;10.88;;;26.80;52.80;;;;;;5058605;28;20227;-83
2022/06/19 06:47:13;;;;;;;13.27;9.40;;;27.00;51.10;;;;;;5089031;28;20637;-84
2022/06/19 06:49:39;;;;;;;13.07;9.20;;;27.10;51.20;;;;;;5058987;28;20211;-82
2022/06/19 06:52:08;;;;;;;18.90;8.98;;;27.20;50.90;;;;;;5080360;28;20198;-83
2022/06/19 06:54:39;;;;;;;14.48;9.82;;;27.40;49.60;;;;;;5083256;28;20257;-82
2022/06/19 06:57:08;;;;;;;14.95;8.73;;;27.60;49.00;;;;;;5086127;28;20245;-84
2022/06/19 06:59:35;;;;;;;13.05;9.10;;;27.60;49.00;;;;;;5085679;28;20183;-85
2022/06/19 07:02:00;;;;;;;10.20;8.73;;;27.80;48.70;;;;;;5085005;28;20176;-84
2022/06/19 07:04:26;;;;;;;11.98;9.63;;;27.80;50.20;;;;;;5082434;28;20226;-82
2022/06/19 07:06:53;;;;;;;13.15;8.85;;;27.90;50.00;;;;;;5063931;28;20203;-81
2022/06/19 07:09:19;;;;;;;11.45;8.77;;;28.10;50.50;;;;;;5082797;28;20191;-83
2022/06/19 07:11:48;;;;;;;13.23;9.35;;;28.10;51.20;;;;;;5097158;28;20282;-84
2022/06/19 07:14:16;;;;;;;14.98;9.73;;;28.30;50.20;;;;;;5087291;28;20249;-80
2022/06/19 07:16:42;;;;;;;16.80;9.90;;;28.40;49.70;;;;;;5093146;28;20180;-84
2022/06/19 07:19:09;;;;;;;18.48;9.98;;;28.50;48.50;;;;;;5082666;28;20195;-83
2022/06/19 07:21:35;;;;;;;10.85;9.57;;;28.70;48.20;;;;;;5075957;28;20709;-81
2022/06/19 07:24:01;;;;;;;14.27;10.23;;;28.80;48.20;;;;;;5080080;28;20200;-83
2022/06/19 07:26:28;;;;;;;14.45;10.38;;;28.90;48.50;;;;;;5081776;28;20224;-83
2022/06/19 07:28:54;;;;;;;13.80;9.57;;;29.00;48.40;;;;;;5091154;28;20184;-84
2022/06/19 07:31:20;;;;;;;13.40;10.70;;;29.20;49.20;;;;;;5062100;28;20188;-83
2022/06/19 07:33:46;;;;;;;15.38;11.13;;;29.40;47.30;;;;;;5079913;28;20232;-83
2022/06/19 07:36:14;;;;;;;17.17;11.07;;;29.60;45.80;;;;;;5078662;28;20714;-85
2022/06/19 07:38:40;;;;;;;15.43;10.55;;;29.70;46.30;;;;;;5076355;28;20188;-85
2022/06/19 07:41:06;;;;;;;11.65;10.45;;;29.90;43.40;;;;;;5064137;28;20180;-84
2022/06/19 07:43:32;;;;;;;14.77;10.68;;;30.00;43.90;;;;;;5069584;28;20219;-83
2022/06/19 07:45:58;;;;;;;13.23;10.80;;;30.10;44.10;;;;;;5085830;28;20269;-82
2022/06/19 07:51:07;;;;;;;14.85;10.88;;;30.30;43.60;;;;;;5078972;28;20255;-82
2022/06/19 07:53:33;;;;;;;13.75;12.38;;;30.30;43.30;;;;;;5080179;28;20215;-81
2022/06/19 07:55:59;;;;;;;13.13;11.80;;;30.40;42.80;;;;;;5086222;28;20234;-82
2022/06/19 07:58:25;;;;;;;15.25;11.82;;;30.60;41.80;;;;;;5086023;28;20188;-83
2022/06/19 08:00:50;;;;;;;13.27;12.02;;;30.60;42.20;;;;;;5077514;28;20205;-83
2022/06/19 08:03:16;;;;;;;12.50;11.30;;;30.70;40.50;;;;;;5084005;28;20199;-84
2022/06/19 08:05:43;;;;;;;13.07;11.82;;;30.90;42.60;;;;;;5088195;28;20194;-82
2022/06/19 08:08:20;;;;;;;11.75;10.70;;;31.00;41.40;;;;;;5085689;28;20191;-83
2022/06/19 08:10:49;;;;;;;14.57;12.57;;;31.00;41.20;;;;;;5081286;28;20203;-83
2022/06/19 08:13:19;;;;;;;12.40;11.30;;;31.30;39.90;;;;;;5093552;28;20187;-82
2022/06/19 08:15:46;;;;;;;15.80;11.60;;;31.20;39.70;;;;;;5077955;28;20192;-81
2022/06/19 08:18:11;;;;;;;13.27;11.52;;;31.30;39.60;;;;;;5088581;28;20591;-81
2022/06/19 08:20:37;;;;;;;12.70;11.50;;;31.40;38.60;;;;;;5092110;28;20528;-83
2022/06/19 08:23:03;;;;;;;11.93;10.73;;;31.40;38.60;;;;;;5094014;28;20183;-81
2022/06/19 08:25:29;;;;;;;11.95;10.90;;;31.60;37.70;;;;;;5085156;28;20216;-83
2022/06/19 08:27:54;;;;;;;11.80;9.55;;;31.60;37.60;;;;;;5099036;28;20193;-83
2022/06/19 08:30:26;;;;;;;11.00;10.00;;;31.60;36.70;;;;;;5083352;28;20195;-84
2022/06/19 08:32:53;;;;;;;11.20;9.82;;;31.70;36.40;;;;;;5087468;28;20175;-84
2022/06/19 08:35:19;;;;;;;11.25;10.23;;;31.80;35.70;;;;;;5086249;28;20203;-84
2022/06/19 08:37:48;;;;;;;12.95;11.40;;;31.80;36.80;;;;;;5090980;28;20183;-89
2022/06/19 08:40:38;;;;;;;11.05;9.98;;;32.00;36.60;;;;;;5096536;28;20179;-83
2022/06/19 08:43:27;;;;;;;10.82;9.90;;;32.00;36.40;;;;;;5080961;28;20180;-80
2022/06/19 08:46:14;;;;;;;14.10;9.43;;;32.20;35.50;;;;;;5075782;28;20203;-81
2022/06/19 08:49:15;;;;;;;11.02;9.95;;;32.20;35.90;;;;;;5082819;28;20474;-82
2022/06/19 08:51:53;;;;;;;11.95;10.57;;;32.20;35.70;;;;;;5081456;28;20252;-83
2022/06/19 08:54:21;;;;;;;17.80;11.15;;;32.20;35.60;;;;;;5092592;28;20211;-82
2022/06/19 08:57:06;;;;;;;12.73;9.93;;;32.30;35.20;;;;;;5090889;28;20233;-82
2022/06/19 08:59:47;;;;;;;13.68;10.00;;;32.30;35.00;;;;;;5069445;28;20264;-81
2022/06/19 09:02:32;;;;;;;11.18;10.18;;;32.20;35.20;;;;;;5091095;28;20551;-83
2022/06/19 09:08:21;;;;;;;11.13;10.20;;;32.40;35.70;;;;;;5087493;28;20234;-83
2022/06/19 09:10:55;;;;;;;12.85;10.65;;;32.50;35.10;;;;;;5077394;28;20203;-83
2022/06/19 09:13:27;;;;;;;12.32;11.18;;;32.60;34.40;;;;;;5094477;28;20179;-85
2022/06/19 09:15:59;;;;;;;12.75;9.98;;;32.60;33.60;;;;;;5082539;28;20188;-83
2022/06/19 09:18:42;;;;;;;11.60;10.70;;;32.90;33.40;;;;;;5086093;28;20195;-82
2022/06/19 09:21:34;;;;;;;10.70;9.70;;;33.00;34.10;;;;;;5067369;28;20168;-80
2022/06/19 09:24:12;;;;;;;15.35;10.20;;;33.00;34.60;;;;;;5087273;28;20241;-83
2022/06/19 09:26:41;;;;;;;14.43;10.23;;;33.00;33.40;;;;;;5092450;28;20183;-83
2022/06/19 09:29:16;;;;;;;14.90;11.13;;;33.00;33.70;;;;;;5086275;28;20399;-84
2022/06/19 09:31:55;;;;;;;11.43;10.07;;;33.10;34.20;;;;;;5082483;28;20189;-83
2022/06/19 09:34:34;;;;;;;12.75;10.32;;;33.40;33.10;;;;;;5085625;28;20207;-80
2022/06/19 09:37:00;;;;;;;11.13;9.98;;;33.50;32.60;;;;;;5089656;28;20171;-84
2022/06/19 09:40:01;;;;;;;11.82;10.30;;;33.40;31.90;;;;;;5086243;28;20209;-83
2022/06/19 09:42:40;;;;;;;16.88;10.40;;;33.40;33.30;;;;;;5096265;28;20204;-84
2022/06/19 09:45:18;;;;;;;11.13;10.13;;;33.60;31.90;;;;;;5085991;28;20282;-83
2022/06/19 09:48:01;;;;;;;12.27;10.85;;;33.60;32.80;;;;;;5089423;28;20185;-84
2022/06/19 09:50:41;;;;;;;10.38;9.57;;;33.60;32.50;;;;;;5088120;28;20179;-84
2022/06/19 09:53:16;;;;;;;11.25;10.13;;;33.50;33.00;;;;;;5092017;28;20263;-85
2022/06/19 09:55:49;;;;;;;12.85;10.73;;;33.80;31.30;;;;;;5099451;28;20270;-84
2022/06/19 09:58:32;;;;;;;11.45;10.32;;;34.00;32.20;;;;;;5071393;28;20203;-85
2022/06/19 10:00:59;;;;;;;11.70;10.63;;;34.10;32.30;;;;;;5085157;28;20180;-84
2022/06/19 10:03:40;;;;;;;12.23;10.90;;;34.20;31.90;;;;;;5099793;28;20195;-85
2022/06/19 10:06:18;;;;;;;11.65;10.20;;;34.30;31.70;;;;;;5088472;28;20658;-82
2022/06/19 10:08:50;;;;;;;11.18;10.20;;;34.50;31.90;;;;;;5099401;28;20209;-83
2022/06/19 10:11:32;;;;;;;11.18;10.10;;;34.50;31.40;;;;;;5097197;28;20185;-83
2022/06/19 10:14:02;;;;;;;11.27;10.18;;;34.60;31.20;;;;;;5097401;28;20271;-82
2022/06/19 10:16:28;;;;;;;11.32;10.35;;;34.70;31.50;;;;;;5091882;28;20191;-84
2022/06/19 10:18:56;;;;;;;12.02;10.50;;;34.70;31.70;;;;;;5086064;28;20273;-80
2022/06/19 10:24:44;;;;;;;11.00;9.93;;;35.10;31.00;;;;;;5094418;28;20214;-84
2022/06/19 10:27:37;;;;;;;12.30;10.57;;;35.20;30.90;;;;;;5097167;28;20203;-85
2022/06/19 10:30:13;;;;;;;16.48;11.65;;;35.40;30.30;;;;;;5083060;28;20192;-82
2022/06/19 10:33:08;;;;;;;11.18;10.07;;;35.60;30.40;;;;;;5092127;28;20178;-84
2022/06/19 10:35:34;;;;;;;12.18;10.98;;;35.80;29.70;;;;;;5093863;28;20227;-84
2022/06/19 10:38:17;;;;;;;11.98;10.90;;;35.70;30.00;;;;;;5098279;28;20178;-84
2022/06/19 10:41:00;;;;;;;12.30;10.38;;;35.70;29.60;;;;;;5094656;28;20222;-84
2022/06/19 10:43:51;;;;;;;11.32;10.40;;;35.70;30.00;;;;;;5091373;28;20187;-83
2022/06/19 10:46:18;;;;;;;12.32;11.15;;;35.70;30.00;;;;;;5091379;28;20186;-84
2022/06/19 10:48:59;;;;;;;11.90;10.77;;;35.80;29.30;;;;;;5093522;28;20195;-85
2022/06/19 10:51:31;;;;;;;11.73;10.93;;;35.90;29.90;;;;;;5091852;28;20179;-83
2022/06/19 10:54:00;;;;;;;16.90;11.25;;;36.30;30.10;;;;;;5085045;28;20314;-83
2022/06/19 10:57:07;;;;;;;12.02;10.98;;;36.20;29.40;;;;;;5088618;28;20191;-82
2022/06/19 10:59:33;;;;;;;11.23;10.02;;;35.90;29.60;;;;;;5065227;28;20179;-82
2022/06/19 11:05:30;;;;;;;12.02;10.98;;;36.40;29.20;;;;;;5090316;28;20240;-82
2022/06/19 11:07:55;;;;;;;17.90;11.57;;;36.60;28.70;;;;;;5090041;28;20242;-85
2022/06/19 11:10:40;;;;;;;12.10;11.00;;;36.50;29.10;;;;;;5095833;28;20213;-84
2022/06/19 11:13:06;;;;;;;13.02;11.68;;;36.60;28.80;;;;;;5086415;28;20187;-84
2022/06/19 11:15:35;;;;;;;12.50;11.40;;;36.60;29.70;;;;;;5087367;28;20207;-84
2022/06/19 11:18:07;;;;;;;12.23;11.02;;;36.50;28.30;;;;;;5093385;28;20185;-85
2022/06/19 11:20:33;;;;;;;12.52;11.35;;;36.30;29.00;;;;;;5095620;28;20234;-85
2022/06/19 11:23:19;;;;;;;12.25;11.23;;;36.50;29.50;;;;;;5098804;28;20201;-86
2022/06/19 11:26:14;;;;;;;13.30;11.55;;;36.70;29.00;;;;;;5096835;28;20558;-84
2022/06/19 11:28:58;;;;;;;12.50;11.35;;;36.60;28.80;;;;;;5093291;28;20270;-84
2022/06/19 11:31:29;;;;;;;11.88;10.70;;;36.90;28.90;;;;;;5093307;28;20182;-84
2022/06/19 11:33:59;;;;;;;12.73;11.50;;;37.20;29.40;;;;;;5096260;28;20222;-84
2022/06/19 11:36:28;;;;;;;12.57;11.43;;;37.40;29.10;;;;;;5088048;28;20217;-85
2022/06/19 11:38:54;;;;;;;13.52;11.68;;;37.60;28.00;;;;;;5088344;28;20198;-85
2022/06/19 11:41:30;;;;;;;12.73;11.57;;;37.70;28.30;;;;;;5086684;28;20183;-85
2022/06/19 11:44:10;;;;;;;12.45;11.20;;;37.10;28.60;;;;;;5087196;28;20355;-85
2022/06/19 11:46:45;;;;;;;11.45;10.55;;;37.10;28.60;;;;;;5085771;28;20171;-82
2022/06/19 11:49:28;;;;;;;13.00;11.85;;;37.30;29.10;;;;;;5085130;28;20187;-85
2022/06/19 11:51:57;;;;;;;12.73;11.63;;;37.90;27.70;;;;;;5088313;28;20174;-85
2022/06/19 11:54:40;;;;;;;13.13;11.88;;;37.90;28.20;;;;;;5084624;28;20581;-85
2022/06/19 11:57:14;;;;;;;13.40;12.05;;;37.70;28.20;;;;;;5082280;28;20189;-85
2022/06/19 11:59:47;;;;;;;12.88;11.65;;;37.70;28.50;;;;;;5093017;28;20707;-84
2022/06/19 12:02:38;;;;;;;17.67;12.60;;;37.90;27.80;;;;;;5072382;28;20238;-82
2022/06/19 12:05:29;;;;;;;12.65;11.43;;;38.20;28.10;;;;;;5091137;28;20221;-84
2022/06/19 12:07:59;;;;;;;13.55;11.95;;;38.40;27.70;;;;;;5091577;28;20203;-85
2022/06/19 12:10:28;;;;;;;12.88;11.65;;;38.40;27.90;;;;;;5102611;28;20210;-84
2022/06/19 12:12:59;;;;;;;13.05;11.85;;;38.40;27.00;;;;;;5091882;28;20246;-85
2022/06/19 12:15:35;;;;;;;13.27;12.15;;;38.50;27.70;;;;;;5091060;28;20207;-83
2022/06/19 12:18:12;;;;;;;13.90;12.60;;;38.80;27.50;;;;;;5091057;28;20174;-83
2022/06/19 12:20:39;;;;;;;13.93;12.90;;;39.00;27.40;;;;;;5084578;28;20250;-84
2022/06/19 12:23:19;;;;;;;13.02;11.93;;;38.90;26.90;;;;;;5094982;28;20199;-82
2022/06/19 12:25:54;;;;;;;13.90;12.60;;;39.00;26.90;;;;;;5089618;28;20241;-82
2022/06/19 12:28:50;;;;;;;14.15;12.77;;;39.10;27.50;;;;;;5096723;28;20193;-84
2022/06/19 12:31:22;;;;;;;14.13;12.77;;;38.80;27.60;;;;;;5099562;28;20246;-82
2022/06/19 12:34:11;;;;;;;15.20;13.80;;;38.90;26.90;;;;;;5095425;28;20280;-83
2022/06/19 12:36:37;;;;;;;13.43;12.32;;;39.40;27.50;;;;;;5069290;28;20211;-83
2022/06/19 12:39:12;;;;;;;13.68;12.50;;;39.50;26.20;;;;;;5080949;28;20186;-83
2022/06/19 12:41:49;;;;;;;13.48;12.45;;;39.10;26.80;;;;;;5090101;28;20181;-84
2022/06/19 12:44:27;;;;;;;13.27;12.27;;;39.40;26.70;;;;;;5089460;28;20226;-84
2022/06/19 12:47:18;;;;;;;14.07;12.95;;;39.10;27.70;;;;;;5087933;28;20186;-86
2022/06/19 12:50:17;;;;;;;14.10;13.00;;;39.30;26.70;;;;;;5092406;28;20680;-82
2022/06/19 12:52:58;;;;;;;14.98;13.52;;;39.40;26.80;;;;;;5097201;28;20274;-85
2022/06/19 12:56:04;;;;;;;13.85;12.82;;;39.50;26.60;;;;;;5092974;28;20228;-83
2022/06/19 12:58:48;;;;;;;13.57;12.68;;;39.70;26.30;;;;;;5065045;28;20201;-84
2022/06/19 13:01:46;;;;;;;14.13;12.77;;;39.50;26.50;;;;;;5088710;28;20183;-84
2022/06/19 13:04:30;;;;;;;14.38;13.32;;;39.40;26.50;;;;;;5085796;28;20225;-86
2022/06/19 13:07:08;;;;;;;13.82;12.80;;;39.60;26.30;;;;;;5099531;28;20244;-83
2022/06/19 13:09:54;;;;;;;13.88;12.77;;;39.80;25.10;;;;;;5101653;28;20179;-83